Time;durP1;ratioP1;P1;durP2;ratioP2;P2;SDS_P1;SDS_P2;PMS_P1;PMS_P2;Temp;Humidity;BMP_temperature;BMP_pressure;BME280_temperature;BME280_humidity;BME280_pressure;Samples;Min_cycle;Max_cycle;Signal;HPM_P1;HPM_P2
2023/08/02 00:01:47;;;;;;;2.10;2.00;;;;;;;;;;5090905;28;20206;-89
2023/08/02 00:04:16;;;;;;;1.80;1.80;;;;;;;;;;5090837;28;20256;-89
2023/08/02 00:06:43;;;;;;;2.33;2.13;;;;;;;;;;5090599;28;20195;-88
2023/08/02 00:09:10;;;;;;;2.25;2.15;;;;;;;;;;5091506;28;20281;-89
2023/08/02 00:11:38;;;;;;;2.55;2.35;;;;;;;;;;5089365;28;20226;-88
2023/08/02 00:14:05;;;;;;;2.08;1.98;;;;;;;;;;5089762;28;20194;-88
2023/08/02 00:16:33;;;;;;;2.75;2.28;;;;;;;;;;5090322;28;20558;-89
2023/08/02 00:19:00;;;;;;;2.80;2.60;;;;;;;;;;5091135;28;20878;-89
2023/08/02 00:21:29;;;;;;;3.30;2.97;;;;;;;;;;5092166;28;20257;-88
2023/08/02 00:23:55;;;;;;;2.13;2.03;;;;;;;;;;5090418;28;20247;-88
2023/08/02 00:26:22;;;;;;;4.43;2.85;;;;;;;;;;5090251;28;20672;-88
2023/08/02 00:28:49;;;;;;;2.42;2.22;;;;;;;;;;5090676;28;20258;-88
2023/08/02 00:31:16;;;;;;;2.63;2.42;;;;;;;;;;5090456;28;20244;-89
2023/08/02 00:33:42;;;;;;;2.88;2.28;;;;;;;;;;5090932;28;20293;-88
2023/08/02 00:36:09;;;;;;;2.55;2.45;;;;;;;;;;5092662;28;20198;-88
2023/08/02 00:38:38;;;;;;;1.77;1.70;;;;;;;;;;5094880;28;20233;-87
2023/08/02 00:41:05;;;;;;;11.25;7.80;;;;;;;;;;5098229;28;20198;-88
2023/08/02 00:43:38;;;;;;;3.17;2.97;;;;;;;;;;5100925;28;20203;-88
2023/08/02 00:46:05;;;;;;;2.90;2.70;;;;;;;;;;5092615;28;20554;-88
2023/08/02 00:48:33;;;;;;;2.22;2.13;;;;;;;;;;5090706;28;20222;-89
2023/08/02 00:51:00;;;;;;;3.45;2.28;;;;;;;;;;5090693;28;20236;-88
2023/08/02 00:53:27;;;;;;;2.65;2.45;;;;;;;;;;5089888;28;20205;-87
2023/08/02 00:55:56;;;;;;;2.33;2.17;;;;;;;;;;5090227;28;20590;-88
2023/08/02 00:58:24;;;;;;;2.15;2.05;;;;;;;;;;5088612;28;20260;-88
2023/08/02 01:00:51;;;;;;;2.40;2.30;;;;;;;;;;5090228;28;20202;-88
2023/08/02 01:03:18;;;;;;;2.38;2.22;;;;;;;;;;5090140;28;20508;-87
2023/08/02 01:05:48;;;;;;;3.08;2.50;;;;;;;;;;5089070;28;20205;-88
2023/08/02 01:08:19;;;;;;;2.53;2.40;;;;;;;;;;5082773;28;20220;-89
2023/08/02 01:10:50;;;;;;;2.55;2.35;;;;;;;;;;5086534;28;20283;-89
2023/08/02 01:13:20;;;;;;;2.75;2.40;;;;;;;;;;5090216;28;20687;-89
2023/08/02 01:15:47;;;;;;;4.00;2.17;;;;;;;;;;5086718;28;20361;-89
2023/08/02 01:18:14;;;;;;;4.18;2.47;;;;;;;;;;5087395;28;20216;-88
2023/08/02 01:20:43;;;;;;;2.08;1.92;;;;;;;;;;5087510;28;20237;-88
2023/08/02 01:23:10;;;;;;;4.30;2.00;;;;;;;;;;5089242;28;20289;-88
2023/08/02 01:25:39;;;;;;;2.20;2.10;;;;;;;;;;5090417;28;20273;-88
2023/08/02 01:28:06;;;;;;;2.70;2.55;;;;;;;;;;5092093;28;20190;-87
2023/08/02 01:30:36;;;;;;;2.42;2.33;;;;;;;;;;5091582;28;20537;-88
2023/08/02 01:33:03;;;;;;;2.03;1.92;;;;;;;;;;5092031;28;20319;-88
2023/08/02 01:35:32;;;;;;;2.15;2.05;;;;;;;;;;5094832;28;20206;-87
2023/08/02 01:38:01;;;;;;;2.20;2.10;;;;;;;;;;5099116;28;20239;-88
2023/08/02 01:40:28;;;;;;;1.75;1.65;;;;;;;;;;5104126;28;20225;-88
2023/08/02 01:42:56;;;;;;;2.35;2.15;;;;;;;;;;5100453;28;20198;-89
2023/08/02 01:45:25;;;;;;;2.65;2.40;;;;;;;;;;5093906;28;20210;-87
2023/08/02 01:47:52;;;;;;;2.58;2.17;;;;;;;;;;5091493;28;20674;-87
2023/08/02 01:50:20;;;;;;;1.88;1.77;;;;;;;;;;5092428;28;20205;-90
2023/08/02 01:52:49;;;;;;;6.15;1.90;;;;;;;;;;5093636;28;20255;-87
2023/08/02 01:55:17;;;;;;;2.05;1.95;;;;;;;;;;5088209;28;20349;-88
2023/08/02 01:57:44;;;;;;;2.25;2.15;;;;;;;;;;5089556;28;20727;-87
2023/08/02 02:00:12;;;;;;;3.03;2.13;;;;;;;;;;5088789;28;20209;-88
2023/08/02 02:02:39;;;;;;;2.13;2.03;;;;;;;;;;5089279;28;20197;-86
2023/08/02 02:05:06;;;;;;;1.98;1.88;;;;;;;;;;5088896;28;20301;-87
2023/08/02 02:07:33;;;;;;;2.22;2.13;;;;;;;;;;5088481;28;20194;-88
2023/08/02 02:10:00;;;;;;;1.95;1.85;;;;;;;;;;5089043;28;20209;-87
2023/08/02 02:12:30;;;;;;;2.60;2.40;;;;;;;;;;5089923;28;20338;-87
2023/08/02 02:14:57;;;;;;;2.92;2.15;;;;;;;;;;5088951;28;20670;-87
2023/08/02 02:17:24;;;;;;;2.20;2.10;;;;;;;;;;5089888;28;20201;-88
2023/08/02 02:19:51;;;;;;;2.97;2.78;;;;;;;;;;5089457;28;20239;-87
2023/08/02 02:22:18;;;;;;;2.15;2.05;;;;;;;;;;5088373;28;20208;-88
2023/08/02 02:24:45;;;;;;;2.15;2.05;;;;;;;;;;5089721;28;20201;-86
2023/08/02 02:27:13;;;;;;;2.38;2.28;;;;;;;;;;5094018;28;20290;-87
2023/08/02 02:29:42;;;;;;;2.28;2.17;;;;;;;;;;5101655;28;20216;-88
2023/08/02 02:32:09;;;;;;;2.53;2.42;;;;;;;;;;5094443;28;20302;-86
2023/08/02 02:34:39;;;;;;;2.45;2.35;;;;;;;;;;5089485;28;20191;-86
2023/08/02 02:37:13;;;;;;;2.72;2.53;;;;;;;;;;5092422;28;20205;-87
2023/08/02 02:42:55;;;;;;;2.88;2.60;;;;;;;;;;5095853;28;20224;-88
2023/08/02 02:45:23;;;;;;;2.45;2.33;;;;;;;;;;5108532;28;20223;-87
2023/08/02 02:47:50;;;;;;;2.35;2.25;;;;;;;;;;5106713;28;20207;-87
2023/08/02 02:50:18;;;;;;;2.45;2.35;;;;;;;;;;5093966;28;20205;-88
2023/08/02 02:52:45;;;;;;;6.00;4.00;;;;;;;;;;5093569;28;20557;-86
2023/08/02 02:55:12;;;;;;;2.33;2.17;;;;;;;;;;5092334;28;20208;-87
2023/08/02 02:57:38;;;;;;;2.72;2.53;;;;;;;;;;5093370;28;20282;-87
2023/08/02 03:00:08;;;;;;;2.03;1.92;;;;;;;;;;5091250;28;20198;-87
2023/08/02 03:02:36;;;;;;;2.38;2.20;;;;;;;;;;5092371;28;20345;-88
2023/08/02 03:05:04;;;;;;;3.15;2.95;;;;;;;;;;5091335;28;20297;-88
2023/08/02 03:07:31;;;;;;;3.13;2.58;;;;;;;;;;5091694;28;20201;-87
2023/08/02 03:09:59;;;;;;;2.63;2.53;;;;;;;;;;5091258;28;20215;-88
2023/08/02 03:12:25;;;;;;;2.58;2.42;;;;;;;;;;5092009;28;20243;-88
2023/08/02 03:14:53;;;;;;;2.97;2.63;;;;;;;;;;5091750;28;20228;-88
2023/08/02 03:17:20;;;;;;;3.22;2.90;;;;;;;;;;5092054;28;20262;-89
2023/08/02 03:19:49;;;;;;;2.90;2.65;;;;;;;;;;5091705;28;20233;-88
2023/08/02 03:22:16;;;;;;;2.80;2.70;;;;;;;;;;5091507;28;20204;-87
2023/08/02 03:24:43;;;;;;;2.50;2.30;;;;;;;;;;5092695;28;20193;-87
2023/08/02 03:27:10;;;;;;;2.80;2.60;;;;;;;;;;5093349;28;20583;-87
2023/08/02 03:29:38;;;;;;;2.80;2.60;;;;;;;;;;5091974;28;20210;-87
2023/08/02 03:32:05;;;;;;;2.25;2.15;;;;;;;;;;5091305;28;20313;-88
2023/08/02 03:34:32;;;;;;;2.20;2.10;;;;;;;;;;5092584;28;20262;-86
2023/08/02 03:37:02;;;;;;;2.72;2.63;;;;;;;;;;5090390;28;20198;-88
2023/08/02 03:39:30;;;;;;;2.90;2.70;;;;;;;;;;5090741;28;20525;-88
2023/08/02 03:41:57;;;;;;;5.40;2.55;;;;;;;;;;5091400;28;20279;-88
2023/08/02 03:44:24;;;;;;;2.80;2.55;;;;;;;;;;5090757;28;20787;-88
2023/08/02 03:46:51;;;;;;;2.38;2.28;;;;;;;;;;5091664;28;20229;-87
2023/08/02 03:49:19;;;;;;;2.55;2.45;;;;;;;;;;5091316;28;20281;-88
2023/08/02 03:51:46;;;;;;;3.17;2.88;;;;;;;;;;5088469;28;20236;-86
2023/08/02 03:54:15;;;;;;;3.25;3.08;;;;;;;;;;5090148;28;20206;-89
2023/08/02 03:56:42;;;;;;;3.25;3.00;;;;;;;;;;5090496;28;20284;-88
2023/08/02 03:59:08;;;;;;;3.53;3.30;;;;;;;;;;5089843;28;20222;-89
2023/08/02 04:01:35;;;;;;;3.20;3.00;;;;;;;;;;5091179;28;20606;-87
2023/08/02 04:04:02;;;;;;;3.10;2.90;;;;;;;;;;5090284;28;20285;-88
2023/08/02 04:06:29;;;;;;;3.03;2.72;;;;;;;;;;5088946;28;20202;-88
2023/08/02 04:08:56;;;;;;;3.35;3.05;;;;;;;;;;5089894;28;20539;-88
2023/08/02 04:11:25;;;;;;;3.38;3.17;;;;;;;;;;5090273;28;20633;-88
2023/08/02 04:13:53;;;;;;;4.55;3.15;;;;;;;;;;5089393;28;20686;-88
2023/08/02 04:16:20;;;;;;;3.22;3.13;;;;;;;;;;5091327;28;20585;-89
2023/08/02 04:18:46;;;;;;;3.65;3.35;;;;;;;;;;5090686;28;20220;-88
2023/08/02 04:21:17;;;;;;;2.92;2.72;;;;;;;;;;5089673;28;20412;-87
2023/08/02 04:23:44;;;;;;;3.55;3.33;;;;;;;;;;5089631;28;20198;-88
2023/08/02 04:26:11;;;;;;;4.40;3.60;;;;;;;;;;5090794;28;20204;-87
2023/08/02 04:28:39;;;;;;;3.88;3.58;;;;;;;;;;5094989;28;20202;-88
2023/08/02 04:31:06;;;;;;;4.00;3.28;;;;;;;;;;5101590;28;20258;-87
2023/08/02 04:33:33;;;;;;;7.43;3.97;;;;;;;;;;5092788;28;20822;-88
2023/08/02 04:36:01;;;;;;;3.15;3.00;;;;;;;;;;5090001;28;20229;-88
2023/08/02 04:38:29;;;;;;;3.42;3.22;;;;;;;;;;5089606;28;20281;-87
2023/08/02 04:40:56;;;;;;;3.42;3.22;;;;;;;;;;5089656;28;20190;-89
2023/08/02 04:43:23;;;;;;;3.97;3.67;;;;;;;;;;5089346;28;20294;-89
2023/08/02 04:45:57;;;;;;;3.25;3.05;;;;;;;;;;5085691;28;20289;-88
2023/08/02 04:48:25;;;;;;;3.45;3.25;;;;;;;;;;5088685;28;20209;-88
2023/08/02 04:50:53;;;;;;;2.88;2.70;;;;;;;;;;5081205;28;20282;-88
2023/08/02 04:53:21;;;;;;;4.00;3.55;;;;;;;;;;5084728;28;20238;-86
2023/08/02 04:56:05;;;;;;;3.65;3.42;;;;;;;;;;5086549;28;20229;-88
2023/08/02 04:58:33;;;;;;;3.28;3.08;;;;;;;;;;5083280;28;20206;-88
2023/08/02 05:01:04;;;;;;;4.72;3.40;;;;;;;;;;5082096;28;20210;-90
2023/08/02 05:03:31;;;;;;;7.82;3.33;;;;;;;;;;5090208;28;20236;-87
2023/08/02 05:05:59;;;;;;;3.78;3.47;;;;;;;;;;5088870;28;20732;-87
2023/08/02 05:08:49;;;;;;;;;;;;;;;;;;;;;
2023/08/02 05:11:17;;;;;;;3.60;3.40;;;;;;;;;;5082221;28;20206;-87
2023/08/02 05:13:44;;;;;;;3.67;3.38;;;;;;;;;;5091662;28;20245;-88
2023/08/02 05:16:15;;;;;;;3.95;3.65;;;;;;;;;;5089519;28;20688;-87
2023/08/02 05:18:43;;;;;;;4.50;4.10;;;;;;;;;;5090798;28;20242;-87
2023/08/02 05:21:11;;;;;;;3.55;3.35;;;;;;;;;;5064839;28;20265;-87
2023/08/02 05:23:42;;;;;;;5.38;3.58;;;;;;;;;;5088676;28;20251;-88
2023/08/02 05:26:10;;;;;;;4.13;3.53;;;;;;;;;;5072773;28;20270;-87
2023/08/02 05:28:38;;;;;;;3.65;3.38;;;;;;;;;;5081297;28;20817;-88
2023/08/02 05:31:10;;;;;;;4.50;4.00;;;;;;;;;;5088877;28;20232;-87
2023/08/02 05:33:41;;;;;;;4.70;3.50;;;;;;;;;;5088935;28;20226;-88
2023/08/02 05:36:11;;;;;;;3.95;3.65;;;;;;;;;;5087764;28;20208;-89
2023/08/02 05:38:41;;;;;;;6.15;3.83;;;;;;;;;;5087306;28;20323;-88
2023/08/02 05:41:11;;;;;;;3.97;3.78;;;;;;;;;;5080366;28;20566;-88
2023/08/02 05:43:41;;;;;;;3.58;3.28;;;;;;;;;;5088645;28;20248;-87
2023/08/02 05:46:17;;;;;;;3.58;3.38;;;;;;;;;;5090058;28;20195;-87
2023/08/02 05:48:45;;;;;;;4.05;3.75;;;;;;;;;;5088197;28;20202;-87
2023/08/02 05:51:14;;;;;;;8.90;3.60;;;;;;;;;;5088384;28;21165;-86
2023/08/02 05:53:41;;;;;;;3.95;3.75;;;;;;;;;;5093619;28;20297;-87
2023/08/02 05:56:08;;;;;;;6.88;4.47;;;;;;;;;;5109048;28;20242;-87
2023/08/02 05:58:35;;;;;;;6.65;3.75;;;;;;;;;;5100455;28;20190;-87
2023/08/02 06:01:02;;;;;;;5.50;4.40;;;;;;;;;;5085055;28;20850;-86
2023/08/02 06:03:29;;;;;;;5.70;4.88;;;;;;;;;;5089877;28;20224;-86
2023/08/02 06:05:58;;;;;;;4.93;4.55;;;;;;;;;;5088290;28;20194;-86
2023/08/02 06:08:24;;;;;;;5.00;4.55;;;;;;;;;;5088809;28;20190;-87
2023/08/02 06:10:52;;;;;;;4.65;4.20;;;;;;;;;;5091933;28;20253;-86
2023/08/02 06:13:19;;;;;;;5.18;4.20;;;;;;;;;;5093595;28;20240;-86
2023/08/02 06:15:46;;;;;;;7.30;4.50;;;;;;;;;;5091273;28;20676;-86
2023/08/02 06:18:13;;;;;;;6.88;4.68;;;;;;;;;;5091369;28;20285;-86
2023/08/02 06:20:40;;;;;;;4.95;4.57;;;;;;;;;;5091178;28;20233;-87
2023/08/02 06:23:08;;;;;;;3.78;3.45;;;;;;;;;;5093194;28;20213;-86
2023/08/02 06:25:35;;;;;;;4.25;3.90;;;;;;;;;;5098356;28;20209;-86
2023/08/02 06:28:03;;;;;;;5.65;4.60;;;;;;;;;;5087442;28;20220;-87
2023/08/02 06:30:30;;;;;;;6.15;4.80;;;;;;;;;;5092920;28;20198;-87
2023/08/02 06:32:57;;;;;;;5.88;4.40;;;;;;;;;;5086293;28;20610;-86
2023/08/02 06:35:26;;;;;;;5.53;4.93;;;;;;;;;;5093559;28;20194;-87
2023/08/02 06:37:53;;;;;;;4.82;4.53;;;;;;;;;;5095717;28;20630;-89
2023/08/02 06:40:23;;;;;;;11.00;4.82;;;;;;;;;;5099150;28;20307;-89
2023/08/02 06:42:51;;;;;;;5.03;4.72;;;;;;;;;;5098479;28;20209;-87
2023/08/02 06:45:18;;;;;;;5.60;5.20;;;;;;;;;;5087554;28;20646;-87
2023/08/02 06:47:44;;;;;;;7.53;4.80;;;;;;;;;;5078677;28;20558;-89
2023/08/02 06:50:12;;;;;;;5.82;5.38;;;;;;;;;;5077407;28;20201;-89
2023/08/02 06:52:39;;;;;;;5.43;4.72;;;;;;;;;;5073137;28;20230;-89
2023/08/02 06:55:05;;;;;;;5.22;4.60;;;;;;;;;;5073483;28;20193;-89
2023/08/02 06:57:34;;;;;;;4.60;4.40;;;;;;;;;;5073044;28;20198;-88
2023/08/02 07:00:01;;;;;;;5.25;4.85;;;;;;;;;;5073189;28;20708;-89
2023/08/02 07:02:28;;;;;;;5.25;4.85;;;;;;;;;;5072573;28;20268;-87
2023/08/02 07:04:55;;;;;;;5.40;5.10;;;;;;;;;;5071468;28;20202;-87
2023/08/02 07:07:22;;;;;;;5.20;4.85;;;;;;;;;;5071656;28;20285;-86
2023/08/02 07:09:49;;;;;;;5.72;4.88;;;;;;;;;;5070266;28;20198;-88
2023/08/02 07:12:16;;;;;;;5.28;4.82;;;;;;;;;;5084607;28;20649;-86
2023/08/02 07:14:44;;;;;;;4.55;4.25;;;;;;;;;;5091031;28;20229;-88
2023/08/02 07:17:11;;;;;;;4.50;4.20;;;;;;;;;;5090322;28;20205;-88
2023/08/02 07:19:38;;;;;;;5.15;4.72;;;;;;;;;;5090535;28;20194;-87
2023/08/02 07:22:04;;;;;;;6.03;4.60;;;;;;;;;;5090208;28;20216;-87
2023/08/02 07:24:31;;;;;;;4.88;4.47;;;;;;;;;;5090862;28;20219;-90
2023/08/02 07:26:58;;;;;;;5.57;4.82;;;;;;;;;;5088672;28;20190;-85
2023/08/02 07:29:25;;;;;;;4.53;4.18;;;;;;;;;;5076772;28;20236;-87
2023/08/02 07:31:53;;;;;;;5.03;4.65;;;;;;;;;;5081322;28;20237;-86
2023/08/02 07:34:20;;;;;;;4.97;4.55;;;;;;;;;;5079940;28;20626;-87
2023/08/02 07:36:47;;;;;;;5.03;4.72;;;;;;;;;;5088489;28;20221;-86
2023/08/02 07:39:14;;;;;;;5.15;4.80;;;;;;;;;;5086651;28;20282;-87
2023/08/02 07:41:41;;;;;;;5.10;4.80;;;;;;;;;;5076502;28;20268;-89
2023/08/02 07:44:11;;;;;;;4.60;4.30;;;;;;;;;;5089524;28;20514;-88
2023/08/02 07:46:38;;;;;;;5.05;4.65;;;;;;;;;;5089033;28;20233;-88
2023/08/02 07:49:09;;;;;;;4.47;4.28;;;;;;;;;;5089622;28;20225;-88
2023/08/02 07:51:36;;;;;;;4.85;4.43;;;;;;;;;;5089185;28;20668;-87
2023/08/02 07:54:03;;;;;;;4.53;4.15;;;;;;;;;;5089854;28;20248;-88
2023/08/02 07:56:30;;;;;;;4.68;4.32;;;;;;;;;;5089158;28;20225;-88
2023/08/02 07:58:56;;;;;;;4.65;4.28;;;;;;;;;;5089551;28;20673;-88
2023/08/02 08:01:23;;;;;;;4.20;4.00;;;;;;;;;;5088641;28;20835;-88
2023/08/02 08:03:50;;;;;;;4.68;4.38;;;;;;;;;;5087571;28;20231;-88
2023/08/02 08:06:20;;;;;;;8.52;4.60;;;;;;;;;;5089448;28;20221;-88
2023/08/02 08:08:48;;;;;;;4.57;4.30;;;;;;;;;;5093319;28;20228;-87
2023/08/02 08:11:15;;;;;;;7.38;4.78;;;;;;;;;;5094207;28;20301;-86
2023/08/02 08:13:42;;;;;;;4.15;3.95;;;;;;;;;;5095015;28;20305;-88
2023/08/02 08:16:09;;;;;;;4.93;4.53;;;;;;;;;;5073103;28;20230;-87
2023/08/02 08:18:36;;;;;;;4.65;4.32;;;;;;;;;;5068108;28;20667;-87
2023/08/02 08:21:04;;;;;;;5.80;4.70;;;;;;;;;;5068570;28;20241;-87
2023/08/02 08:23:32;;;;;;;4.68;4.38;;;;;;;;;;5067772;28;20218;-86
2023/08/02 08:25:59;;;;;;;4.97;4.53;;;;;;;;;;5066991;28;20225;-88
2023/08/02 08:28:26;;;;;;;6.07;3.95;;;;;;;;;;5068371;28;20218;-87
2023/08/02 08:30:58;;;;;;;3.70;3.50;;;;;;;;;;5067835;28;20694;-86
2023/08/02 08:33:25;;;;;;;4.00;3.70;;;;;;;;;;5067387;28;20261;-87
2023/08/02 08:35:52;;;;;;;4.15;3.40;;;;;;;;;;5068424;28;20238;-87
2023/08/02 08:38:18;;;;;;;3.92;3.72;;;;;;;;;;5068432;28;20223;-86
2023/08/02 08:40:51;;;;;;;5.18;4.88;;;;;;;;;;5067654;28;20254;-85
2023/08/02 08:43:19;;;;;;;6.15;3.80;;;;;;;;;;5068084;28;20256;-87
2023/08/02 08:45:45;;;;;;;4.03;3.80;;;;;;;;;;5068617;28;20243;-87
2023/08/02 08:48:12;;;;;;;3.92;3.65;;;;;;;;;;5068687;28;20237;-87
2023/08/02 08:50:40;;;;;;;3.10;3.00;;;;;;;;;;5068858;28;20694;-87
2023/08/02 08:53:09;;;;;;;3.63;3.30;;;;;;;;;;5068714;28;20233;-87
2023/08/02 08:55:36;;;;;;;3.33;3.08;;;;;;;;;;5068088;28;20225;-86
2023/08/02 08:58:04;;;;;;;3.28;3.08;;;;;;;;;;5069067;28;20222;-87
2023/08/02 09:00:33;;;;;;;4.07;3.33;;;;;;;;;;5067901;28;20308;-86
2023/08/02 09:03:00;;;;;;;5.20;4.75;;;;;;;;;;5067353;28;20237;-90
2023/08/02 09:05:29;;;;;;;6.75;3.28;;;;;;;;;;5073830;28;20666;-86
2023/08/02 09:07:58;;;;;;;7.00;3.30;;;;;;;;;;5087047;28;20682;-87
2023/08/02 09:10:26;;;;;;;5.30;2.88;;;;;;;;;;5087242;28;20229;-86
2023/08/02 09:12:53;;;;;;;6.07;2.90;;;;;;;;;;5088183;28;20732;-86
2023/08/02 09:15:22;;;;;;;2.80;2.70;;;;;;;;;;5087136;28;20706;-87
2023/08/02 09:17:49;;;;;;;3.45;3.15;;;;;;;;;;5088449;28;20221;-85
2023/08/02 09:20:16;;;;;;;2.58;2.25;;;;;;;;;;5098691;28;20225;-87
2023/08/02 09:22:43;;;;;;;2.90;2.78;;;;;;;;;;5099152;28;20244;-87
2023/08/02 09:25:20;;;;;;;3.05;2.88;;;;;;;;;;5090079;28;20290;-87
2023/08/02 09:27:47;;;;;;;3.05;2.83;;;;;;;;;;5088898;28;20251;-88
2023/08/02 09:30:23;;;;;;;2.42;2.33;;;;;;;;;;5087671;28;20694;-85
2023/08/02 09:32:59;;;;;;;3.42;3.05;;;;;;;;;;5087415;28;20238;-88
2023/08/02 09:35:26;;;;;;;2.83;2.63;;;;;;;;;;5088034;28;20232;-87
2023/08/02 09:37:53;;;;;;;3.22;3.00;;;;;;;;;;5086766;28;20221;-86
2023/08/02 09:40:21;;;;;;;2.42;2.33;;;;;;;;;;5088107;28;20221;-87
2023/08/02 09:42:48;;;;;;;3.00;2.80;;;;;;;;;;5087262;28;20690;-86
2023/08/02 09:45:14;;;;;;;2.83;2.63;;;;;;;;;;5090175;28;20221;-87
2023/08/02 09:47:51;;;;;;;3.58;2.63;;;;;;;;;;5091625;28;20227;-86
2023/08/02 09:50:18;;;;;;;2.45;2.35;;;;;;;;;;5092049;28;20232;-87
2023/08/02 09:52:46;;;;;;;3.30;2.20;;;;;;;;;;5090872;28;20232;-86
2023/08/02 09:55:13;;;;;;;2.42;2.33;;;;;;;;;;5090653;28;20231;-87
2023/08/02 09:57:43;;;;;;;2.50;2.40;;;;;;;;;;5092317;28;20225;-87
2023/08/02 10:00:10;;;;;;;2.47;2.38;;;;;;;;;;5090796;28;20607;-86
2023/08/02 10:02:37;;;;;;;3.17;2.97;;;;;;;;;;5090718;28;20312;-85
2023/08/02 10:05:07;;;;;;;2.60;2.50;;;;;;;;;;5087732;28;20201;-87
2023/08/02 10:07:36;;;;;;;2.58;2.38;;;;;;;;;;5092299;28;20205;-89
2023/08/02 10:10:05;;;;;;;3.30;3.10;;;;;;;;;;5092248;28;20759;-88
2023/08/02 10:12:33;;;;;;;2.45;2.35;;;;;;;;;;5092565;28;20382;-88
2023/08/02 10:15:00;;;;;;;3.03;2.83;;;;;;;;;;5092240;28;20286;-90
2023/08/02 10:17:27;;;;;;;2.63;2.50;;;;;;;;;;5092844;28;20292;-87
2023/08/02 10:19:55;;;;;;;2.65;2.55;;;;;;;;;;5087290;28;20234;-86
2023/08/02 10:22:24;;;;;;;2.72;2.63;;;;;;;;;;5071360;28;20194;-88
2023/08/02 10:24:52;;;;;;;2.72;2.55;;;;;;;;;;5072287;28;20194;-88
2023/08/02 10:27:20;;;;;;;2.80;2.60;;;;;;;;;;5073027;28;20539;-88
2023/08/02 10:29:47;;;;;;;4.07;2.85;;;;;;;;;;5071415;28;20202;-86
2023/08/02 10:32:15;;;;;;;3.15;2.95;;;;;;;;;;5071410;28;20222;-89
2023/08/02 10:34:50;;;;;;;3.08;2.92;;;;;;;;;;5071103;28;20237;-88
2023/08/02 10:37:18;;;;;;;3.17;2.92;;;;;;;;;;5074669;28;20209;-87
2023/08/02 10:39:56;;;;;;;3.30;3.10;;;;;;;;;;5081491;28;20418;-89
2023/08/02 10:42:24;;;;;;;3.30;3.08;;;;;;;;;;5090823;28;20277;-87
2023/08/02 10:45:10;;;;;;;4.38;3.00;;;;;;;;;;5086955;28;20198;-88
2023/08/02 10:47:37;;;;;;;3.08;2.88;;;;;;;;;;5090072;28;20186;-89
2023/08/02 10:50:05;;;;;;;3.28;3.10;;;;;;;;;;5089202;28;20201;-88
2023/08/02 10:52:34;;;;;;;6.95;2.78;;;;;;;;;;5078764;28;20278;-88
2023/08/02 10:55:07;;;;;;;3.83;2.95;;;;;;;;;;5074229;28;20257;-89
2023/08/02 10:57:34;;;;;;;5.70;3.10;;;;;;;;;;5076091;28;20218;-88
2023/08/02 11:00:02;;;;;;;4.53;2.70;;;;;;;;;;5076178;28;20198;-88
2023/08/02 11:02:44;;;;;;;3.05;2.85;;;;;;;;;;5072557;28;20202;-88
2023/08/02 11:05:12;;;;;;;3.28;2.97;;;;;;;;;;5073123;28;20197;-89
2023/08/02 11:07:39;;;;;;;2.53;2.42;;;;;;;;;;5070886;28;20588;-89
2023/08/02 11:10:07;;;;;;;3.15;2.95;;;;;;;;;;5072238;28;20259;-88
2023/08/02 11:12:34;;;;;;;3.97;2.67;;;;;;;;;;5071416;28;20242;-89
2023/08/02 11:15:02;;;;;;;4.28;3.40;;;;;;;;;;5071413;28;20318;-88
2023/08/02 11:17:30;;;;;;;3.40;3.20;;;;;;;;;;5071448;28;20194;-89
2023/08/02 11:19:57;;;;;;;3.47;3.28;;;;;;;;;;5076630;28;20658;-88
2023/08/02 11:22:25;;;;;;;6.60;2.90;;;;;;;;;;5091567;28;20265;-88
2023/08/02 11:24:54;;;;;;;4.05;3.10;;;;;;;;;;5091629;28;20236;-88
2023/08/02 11:27:24;;;;;;;5.80;2.92;;;;;;;;;;5091788;28;20326;-86
2023/08/02 11:29:57;;;;;;;3.08;2.97;;;;;;;;;;5090665;28;20194;-89
2023/08/02 11:32:24;;;;;;;3.17;2.92;;;;;;;;;;5091227;28;20196;-90
2023/08/02 11:34:51;;;;;;;2.65;2.45;;;;;;;;;;5091630;28;20254;-88
2023/08/02 11:37:19;;;;;;;2.40;2.28;;;;;;;;;;5091458;28;20228;-89
2023/08/02 11:39:52;;;;;;;2.83;2.70;;;;;;;;;;5091894;28;20482;-89
2023/08/02 11:42:19;;;;;;;2.95;2.63;;;;;;;;;;5091838;28;20197;-87
2023/08/02 11:44:48;;;;;;;2.63;2.53;;;;;;;;;;5091076;28;20201;-89
2023/08/02 11:47:15;;;;;;;3.30;3.00;;;;;;;;;;5092667;28;20198;-89
2023/08/02 11:49:49;;;;;;;2.80;2.60;;;;;;;;;;5093241;28;20210;-87
2023/08/02 11:52:24;;;;;;;3.97;2.25;;;;;;;;;;5093943;28;20593;-90
2023/08/02 11:54:52;;;;;;;3.13;2.10;;;;;;;;;;5091488;28;20743;-89
2023/08/02 11:57:19;;;;;;;2.38;2.28;;;;;;;;;;5091110;28;20209;-90
2023/08/02 11:59:47;;;;;;;2.67;2.50;;;;;;;;;;5092887;28;20251;-87
2023/08/02 12:02:24;;;;;;;3.22;2.55;;;;;;;;;;5093408;28;20202;-89
2023/08/02 12:04:51;;;;;;;5.18;3.00;;;;;;;;;;5067336;28;20227;-88
2023/08/02 12:07:25;;;;;;;2.58;2.40;;;;;;;;;;5069737;28;20427;-88
2023/08/02 12:09:51;;;;;;;2.80;2.60;;;;;;;;;;5068792;28;20229;-89
2023/08/02 12:12:18;;;;;;;3.03;2.78;;;;;;;;;;5070192;28;20225;-89
2023/08/02 12:14:45;;;;;;;2.38;2.28;;;;;;;;;;5071027;28;20226;-87
2023/08/02 12:17:18;;;;;;;2.63;2.47;;;;;;;;;;5071400;28;20285;-89
2023/08/02 12:19:47;;;;;;;3.05;2.85;;;;;;;;;;5067915;28;20241;-86
2023/08/02 12:22:14;;;;;;;2.92;2.60;;;;;;;;;;5090629;28;20218;-88
2023/08/02 12:24:41;;;;;;;2.45;2.35;;;;;;;;;;5091355;28;20321;-85
2023/08/02 12:27:16;;;;;;;2.83;2.63;;;;;;;;;;5091900;28;20668;-88
2023/08/02 12:29:43;;;;;;;2.90;2.80;;;;;;;;;;5092091;28;20235;-88
2023/08/02 12:32:10;;;;;;;2.47;2.38;;;;;;;;;;5093314;28;20287;-87
2023/08/02 12:34:37;;;;;;;2.95;2.85;;;;;;;;;;5092916;28;20701;-88
2023/08/02 12:37:06;;;;;;;2.67;2.38;;;;;;;;;;5099904;28;20281;-88
2023/08/02 12:39:33;;;;;;;2.70;2.50;;;;;;;;;;5104079;28;20282;-88
2023/08/02 12:42:01;;;;;;;3.03;2.80;;;;;;;;;;5089431;28;20230;-88
2023/08/02 12:44:27;;;;;;;2.92;2.78;;;;;;;;;;5089525;28;20304;-88
2023/08/02 12:46:54;;;;;;;2.97;2.72;;;;;;;;;;5088438;28;20237;-87
2023/08/02 12:49:21;;;;;;;3.15;2.85;;;;;;;;;;5089065;28;20242;-87
2023/08/02 12:51:48;;;;;;;3.55;2.63;;;;;;;;;;5089070;28;20224;-86
2023/08/02 12:54:16;;;;;;;2.50;2.40;;;;;;;;;;5093878;28;20214;-87
2023/08/02 12:56:45;;;;;;;2.50;2.40;;;;;;;;;;5090800;28;20282;-88
2023/08/02 12:59:13;;;;;;;2.70;2.53;;;;;;;;;;5091821;28;20252;-88
2023/08/02 13:01:40;;;;;;;2.80;2.58;;;;;;;;;;5090196;28;20271;-86
2023/08/02 13:04:09;;;;;;;2.60;2.50;;;;;;;;;;5089154;28;20226;-87
2023/08/02 13:06:36;;;;;;;2.67;2.58;;;;;;;;;;5088545;28;20334;-87
2023/08/02 13:09:05;;;;;;;2.38;2.28;;;;;;;;;;5088547;28;20230;-86
2023/08/02 13:11:34;;;;;;;3.63;2.38;;;;;;;;;;5087999;28;20254;-88
2023/08/02 13:14:00;;;;;;;3.30;2.58;;;;;;;;;;5088889;28;20299;-89
2023/08/02 13:16:27;;;;;;;2.65;2.55;;;;;;;;;;5097390;28;20248;-89
2023/08/02 13:19:00;;;;;;;3.10;2.90;;;;;;;;;;5096708;28;20247;-89
2023/08/02 13:21:27;;;;;;;6.38;2.83;;;;;;;;;;5115900;28;20240;-92
2023/08/02 13:23:55;;;;;;;6.88;3.22;;;;;;;;;;5112749;28;20225;-90
2023/08/02 13:26:22;;;;;;;4.72;2.38;;;;;;;;;;5109505;28;20406;-90
2023/08/02 13:28:52;;;;;;;3.45;2.55;;;;;;;;;;5108684;28;20229;-91
2023/08/02 13:31:20;;;;;;;2.80;2.70;;;;;;;;;;5108410;28;20213;-90
2023/08/02 13:33:49;;;;;;;3.88;3.58;;;;;;;;;;5110540;28;20248;-89
2023/08/02 13:36:16;;;;;;;3.03;2.53;;;;;;;;;;5109664;28;20232;-91
2023/08/02 13:38:43;;;;;;;3.22;2.60;;;;;;;;;;5109099;28;20213;-90
2023/08/02 13:41:11;;;;;;;4.72;2.60;;;;;;;;;;5109430;28;20249;-91
2023/08/02 13:43:38;;;;;;;2.83;2.63;;;;;;;;;;5109292;28;20248;-90
2023/08/02 13:46:07;;;;;;;5.25;2.95;;;;;;;;;;5111133;28;20240;-89
2023/08/02 13:48:34;;;;;;;3.22;2.33;;;;;;;;;;5110659;28;20221;-90
2023/08/02 13:51:02;;;;;;;2.72;2.50;;;;;;;;;;5109597;28;20217;-89
2023/08/02 13:53:29;;;;;;;2.20;2.10;;;;;;;;;;5108748;28;20224;-87
2023/08/02 13:55:57;;;;;;;2.88;2.55;;;;;;;;;;5108392;28;20327;-88
2023/08/02 13:58:25;;;;;;;2.90;2.70;;;;;;;;;;5109544;28;20221;-88
2023/08/02 14:00:52;;;;;;;2.65;2.55;;;;;;;;;;5111324;28;20619;-88
2023/08/02 14:03:21;;;;;;;4.00;2.67;;;;;;;;;;5110584;28;20294;-89
2023/08/02 14:05:51;;;;;;;3.05;2.92;;;;;;;;;;5108991;28;20228;-88
2023/08/02 14:08:18;;;;;;;3.38;3.17;;;;;;;;;;5109762;28;20225;-89
2023/08/02 14:10:47;;;;;;;3.70;2.65;;;;;;;;;;5110073;28;20221;-88
2023/08/02 14:13:14;;;;;;;2.95;2.55;;;;;;;;;;5109650;28;20259;-88
2023/08/02 14:15:44;;;;;;;2.92;2.72;;;;;;;;;;5109020;28;20644;-88
2023/08/02 14:18:14;;;;;;;3.55;2.80;;;;;;;;;;5110861;28;20235;-88
2023/08/02 14:20:43;;;;;;;3.10;2.88;;;;;;;;;;5077852;28;20245;-88
2023/08/02 14:23:11;;;;;;;3.17;2.97;;;;;;;;;;5069099;28;20222;-89
2023/08/02 14:25:41;;;;;;;2.97;2.70;;;;;;;;;;5070643;28;20301;-91
2023/08/02 14:28:08;;;;;;;2.97;2.58;;;;;;;;;;5071704;28;20237;-90
2023/08/02 14:30:35;;;;;;;2.65;2.55;;;;;;;;;;5070316;28;20660;-88
2023/08/02 14:33:02;;;;;;;2.95;2.83;;;;;;;;;;5073781;28;20247;-88
2023/08/02 14:35:33;;;;;;;2.70;2.60;;;;;;;;;;5073075;28;20270;-88
2023/08/02 14:38:05;;;;;;;2.88;2.60;;;;;;;;;;5072521;28;20227;-89
2023/08/02 14:40:32;;;;;;;3.95;2.60;;;;;;;;;;5073840;28;20226;-89
2023/08/02 14:43:03;;;;;;;2.78;2.58;;;;;;;;;;5072375;28;20227;-91
2023/08/02 14:45:30;;;;;;;3.03;2.83;;;;;;;;;;5054972;28;20219;-89
2023/08/02 14:47:58;;;;;;;2.47;2.35;;;;;;;;;;5073412;28;20233;-86
2023/08/02 14:50:26;;;;;;;3.03;2.92;;;;;;;;;;5071849;28;20357;-89
2023/08/02 14:52:53;;;;;;;6.00;2.60;;;;;;;;;;5073500;28;20231;-87